createdAt,value
2018-11-06T00:00:26.134Z,99.90
2018-11-06T00:02:59.953Z,99.90
2018-11-06T00:05:28.417Z,99.90
2018-11-06T00:07:56.914Z,99.90
2018-11-06T00:10:25.398Z,99.90
2018-11-06T00:12:53.873Z,99.90
2018-11-06T00:15:22.337Z,99.90
2018-11-06T00:17:51.057Z,99.90
2018-11-06T00:20:19.545Z,99.90
2018-11-06T00:22:47.986Z,99.90
2018-11-06T00:25:16.570Z,99.90
2018-11-06T00:27:45.024Z,99.90
2018-11-06T00:30:14.394Z,99.90
2018-11-06T00:32:43.297Z,99.90
2018-11-06T00:35:13.114Z,99.90
2018-11-06T00:37:42.708Z,99.90
2018-11-06T00:40:11.209Z,99.90
2018-11-06T00:42:39.708Z,99.90
2018-11-06T00:45:10.608Z,99.90
2018-11-06T00:47:39.311Z,99.90
2018-11-06T00:50:08.922Z,99.90
2018-11-06T00:52:37.831Z,99.90
2018-11-06T00:55:07.356Z,99.90
2018-11-06T00:57:35.922Z,99.90
2018-11-06T01:00:04.470Z,99.90
2018-11-06T01:02:32.956Z,99.90
2018-11-06T01:05:01.422Z,99.90
2018-11-06T01:07:29.920Z,99.90
2018-11-06T01:09:58.456Z,99.90
2018-11-06T01:12:26.938Z,99.90
2018-11-06T01:14:55.430Z,99.90
2018-11-06T01:19:52.034Z,99.90
2018-11-06T01:22:20.490Z,99.90
2018-11-06T01:24:48.974Z,99.90
2018-11-06T01:27:17.714Z,99.90
2018-11-06T01:29:46.218Z,99.90
2018-11-06T01:32:14.692Z,99.90
2018-11-06T01:34:43.166Z,99.90
2018-11-06T01:37:11.644Z,99.90
2018-11-06T01:39:40.105Z,99.90
2018-11-06T01:42:08.606Z,99.90
2018-11-06T01:44:37.106Z,99.90
2018-11-06T01:47:05.642Z,99.90
2018-11-06T01:49:34.127Z,99.90
2018-11-06T01:52:02.625Z,99.90
2018-11-06T01:54:31.224Z,99.90
2018-11-06T01:56:59.712Z,99.90
2018-11-06T01:59:28.172Z,99.90
2018-11-06T02:01:56.654Z,99.90
2018-11-06T02:04:25.149Z,99.90
2018-11-06T02:06:53.587Z,99.90
2018-11-06T02:09:22.032Z,99.90
2018-11-06T02:11:50.528Z,99.90
2018-11-06T02:14:19.010Z,99.90
2018-11-06T02:19:15.610Z,99.90
2018-11-06T02:21:44.142Z,99.90
2018-11-06T02:24:12.575Z,99.90
2018-11-06T02:26:41.034Z,99.90
2018-11-06T02:29:09.519Z,99.90
2018-11-06T02:31:38.025Z,99.90
2018-11-06T02:34:06.595Z,99.90
2018-11-06T02:36:35.135Z,99.90
2018-11-06T02:39:04.208Z,99.90
2018-11-06T02:41:32.697Z,99.90
2018-11-06T02:44:01.249Z,99.90
2018-11-06T02:46:29.735Z,99.90
2018-11-06T02:48:58.293Z,99.90
2018-11-06T02:51:27.789Z,99.90
2018-11-06T02:53:56.251Z,99.90
2018-11-06T02:56:24.716Z,99.90
2018-11-06T02:58:53.207Z,99.90
2018-11-06T03:01:21.728Z,99.90
2018-11-06T03:03:50.201Z,99.90
2018-11-06T03:06:18.769Z,99.90
2018-11-06T03:08:47.238Z,99.90
2018-11-06T03:11:15.713Z,99.90
2018-11-06T03:13:44.197Z,99.90
2018-11-06T03:16:12.668Z,99.90
2018-11-06T03:18:41.571Z,99.90
2018-11-06T03:21:10.077Z,99.90
2018-11-06T03:23:38.547Z,99.90
2018-11-06T03:26:07.119Z,99.90
2018-11-06T03:28:35.580Z,99.90
2018-11-06T03:31:04.056Z,99.90
2018-11-06T03:33:32.581Z,99.90
2018-11-06T03:36:01.066Z,99.90
2018-11-06T03:38:29.524Z,99.90
2018-11-06T03:40:57.995Z,99.90
2018-11-06T03:43:26.481Z,99.90
2018-11-06T03:45:54.927Z,99.90
2018-11-06T03:48:23.393Z,99.90
2018-11-06T03:50:51.855Z,99.90
2018-11-06T03:53:20.345Z,99.90
2018-11-06T03:55:48.807Z,99.90
2018-11-06T03:58:17.282Z,99.90
2018-11-06T04:00:45.778Z,99.90
2018-11-06T04:03:14.250Z,99.90
2018-11-06T04:08:10.839Z,99.90
2018-11-06T04:10:39.318Z,99.90
2018-11-06T04:13:07.795Z,99.90
2018-11-06T04:15:36.266Z,99.90
2018-11-06T04:18:05.351Z,99.90
2018-11-06T04:20:33.881Z,99.90
2018-11-06T04:23:02.338Z,99.90
2018-11-06T04:25:30.826Z,99.90
2018-11-06T04:27:59.291Z,99.90
2018-11-06T04:30:27.756Z,99.90
2018-11-06T04:32:56.241Z,99.90
2018-11-06T04:35:24.730Z,99.90
2018-11-06T04:37:53.192Z,99.90
2018-11-06T04:40:21.718Z,99.90
2018-11-06T04:42:50.260Z,99.90
2018-11-06T04:45:18.762Z,99.90
2018-11-06T04:47:47.228Z,99.90
2018-11-06T04:52:44.035Z,99.90
2018-11-06T04:55:13.297Z,99.90
2018-11-06T04:57:42.437Z,99.90
2018-11-06T05:00:12.718Z,99.90
2018-11-06T05:02:41.832Z,99.90
2018-11-06T05:07:39.507Z,99.90
2018-11-06T05:10:10.159Z,99.90
2018-11-06T05:12:38.834Z,99.90
2018-11-06T05:17:36.168Z,99.90
2018-11-06T05:20:06.533Z,99.90
2018-11-06T05:25:03.262Z,99.90
2018-11-06T05:27:32.388Z,99.90
2018-11-06T05:30:00.782Z,99.90
2018-11-06T05:32:29.399Z,99.90
2018-11-06T05:34:57.956Z,99.90
2018-11-06T05:37:26.461Z,99.90
2018-11-06T05:40:06.429Z,99.90
2018-11-06T05:42:34.895Z,99.90
2018-11-06T05:45:03.419Z,99.90
2018-11-06T05:47:31.905Z,99.90
2018-11-06T05:50:00.351Z,99.90
2018-11-06T05:52:28.827Z,99.90
2018-11-06T05:54:57.363Z,99.90
2018-11-06T05:57:25.866Z,99.90
2018-11-06T05:59:54.364Z,99.90
2018-11-06T06:02:22.846Z,99.90
2018-11-06T06:04:51.343Z,99.90
2018-11-06T06:07:19.841Z,99.90
2018-11-06T06:09:48.391Z,99.90
2018-11-06T06:12:16.945Z,99.90
2018-11-06T06:14:45.425Z,99.90
2018-11-06T06:17:13.995Z,99.90
2018-11-06T06:19:42.507Z,99.90
2018-11-06T06:22:11.025Z,99.90
2018-11-06T06:24:39.593Z,99.90
2018-11-06T06:27:11.865Z,99.90
2018-11-06T06:29:40.464Z,99.90
2018-11-06T06:32:09.035Z,99.90
2018-11-06T06:34:37.728Z,99.90
2018-11-06T06:37:06.704Z,99.90
2018-11-06T06:39:35.251Z,99.90
2018-11-06T06:42:03.772Z,99.90
2018-11-06T06:44:32.264Z,99.90
2018-11-06T06:47:00.774Z,99.90
2018-11-06T06:49:29.295Z,99.90
2018-11-06T06:51:57.773Z,99.90
2018-11-06T06:54:26.483Z,99.90
2018-11-06T06:56:54.793Z,99.90
2018-11-06T06:59:23.282Z,99.90
2018-11-06T07:01:51.757Z,99.90
2018-11-06T07:04:20.267Z,99.90
2018-11-06T07:06:49.225Z,99.90
2018-11-06T07:09:17.703Z,99.90
2018-11-06T07:11:46.543Z,99.90
2018-11-06T07:14:15.052Z,99.90
2018-11-06T07:16:43.540Z,99.90
2018-11-06T07:19:12.062Z,99.90
2018-11-06T07:21:40.557Z,99.90
2018-11-06T07:24:09.060Z,99.90
2018-11-06T07:26:37.546Z,99.90
2018-11-06T07:29:06.011Z,99.90
2018-11-06T07:31:34.490Z,99.90
2018-11-06T07:34:03.010Z,99.90
2018-11-06T07:36:31.454Z,99.90
2018-11-06T07:38:59.933Z,99.90
2018-11-06T07:41:28.440Z,99.90
2018-11-06T07:43:56.968Z,99.90
2018-11-06T07:46:25.443Z,99.90
2018-11-06T07:48:53.904Z,99.90
2018-11-06T07:51:22.392Z,99.90
2018-11-06T07:53:50.850Z,99.90
2018-11-06T07:56:19.459Z,99.90
2018-11-06T07:58:47.858Z,99.90
2018-11-06T08:01:16.458Z,99.90
2018-11-06T08:03:44.951Z,99.90
2018-11-06T08:06:13.508Z,99.90
2018-11-06T08:08:41.938Z,99.90
2018-11-06T08:11:10.440Z,99.90
2018-11-06T08:13:38.937Z,99.90
2018-11-06T08:16:07.542Z,99.90
2018-11-06T08:18:36.042Z,99.90
2018-11-06T08:21:04.664Z,99.90
2018-11-06T08:23:33.198Z,99.90
2018-11-06T08:26:01.685Z,99.90
2018-11-06T08:28:30.173Z,99.90
2018-11-06T08:30:59.034Z,99.90
2018-11-06T08:33:27.192Z,99.90
2018-11-06T08:35:55.680Z,99.90
2018-11-06T08:38:24.228Z,99.90
2018-11-06T08:40:52.726Z,99.90
2018-11-06T08:43:21.256Z,99.90
2018-11-06T08:45:49.734Z,99.90
2018-11-06T08:48:18.360Z,99.90
2018-11-06T08:50:46.748Z,99.90
2018-11-06T08:53:15.284Z,99.90
2018-11-06T08:55:43.798Z,99.90
2018-11-06T08:58:12.358Z,99.90
2018-11-06T09:00:40.846Z,99.90
2018-11-06T09:03:09.372Z,99.90
2018-11-06T09:05:37.841Z,99.90
2018-11-06T09:08:06.389Z,99.90
2018-11-06T09:10:34.880Z,99.90
2018-11-06T09:13:03.419Z,99.90
2018-11-06T09:15:31.924Z,99.90
2018-11-06T09:18:00.400Z,99.90
2018-11-06T09:20:28.888Z,99.90
2018-11-06T09:22:57.388Z,99.90
2018-11-06T09:25:25.918Z,99.90
2018-11-06T09:27:54.416Z,99.90
2018-11-06T09:30:22.911Z,99.90
2018-11-06T09:32:51.500Z,99.90
2018-11-06T09:35:19.997Z,99.90
2018-11-06T09:37:48.486Z,99.90
2018-11-06T09:40:18.214Z,99.90
2018-11-06T09:42:46.762Z,99.90
2018-11-06T09:45:15.400Z,99.90
2018-11-06T09:47:43.936Z,99.90
2018-11-06T09:50:14.796Z,99.90
2018-11-06T09:52:43.967Z,99.90
2018-11-06T09:55:12.802Z,99.90
2018-11-06T09:57:41.333Z,99.90
2018-11-06T10:00:12.041Z,99.90
2018-11-06T10:02:40.559Z,99.90
2018-11-06T10:05:09.922Z,99.90
2018-11-06T10:07:38.755Z,99.90
2018-11-06T10:10:09.215Z,99.90
2018-11-06T10:12:37.913Z,99.90
2018-11-06T10:15:07.979Z,99.90
2018-11-06T10:17:36.665Z,99.90
2018-11-06T10:20:06.617Z,99.90
2018-11-06T10:22:35.125Z,99.90
2018-11-06T10:25:03.770Z,99.90
2018-11-06T10:27:32.299Z,99.90
2018-11-06T10:30:00.917Z,99.90
2018-11-06T10:32:29.441Z,99.90
2018-11-06T10:34:57.947Z,99.30
2018-11-06T10:37:26.491Z,99.80
2018-11-06T10:39:55.012Z,99.90
2018-11-06T10:42:23.571Z,99.90
2018-11-06T10:44:52.117Z,99.90
2018-11-06T10:47:20.587Z,99.90
2018-11-06T10:49:49.293Z,99.90
2018-11-06T10:52:18.116Z,99.90
2018-11-06T10:54:46.671Z,99.90
2018-11-06T10:57:15.216Z,99.90
2018-11-06T10:59:43.777Z,97.90
2018-11-06T11:02:16.491Z,98.50
2018-11-06T11:04:44.967Z,99.40
2018-11-06T11:07:13.448Z,99.90
2018-11-06T11:09:41.969Z,99.90
2018-11-06T11:12:10.457Z,99.90
2018-11-06T11:14:38.993Z,99.90
2018-11-06T11:17:07.520Z,99.90
2018-11-06T11:19:36.013Z,99.90
2018-11-06T11:22:04.885Z,99.90
2018-11-06T11:24:33.403Z,99.90
2018-11-06T11:27:01.902Z,99.90
2018-11-06T11:29:30.374Z,99.50
2018-11-06T11:31:58.911Z,99.90
2018-11-06T11:34:27.350Z,99.90
2018-11-06T11:36:55.853Z,99.90
2018-11-06T11:39:24.390Z,99.90
2018-11-06T11:41:52.872Z,98.50
2018-11-06T11:44:21.361Z,98.00
2018-11-06T11:46:49.876Z,98.00
2018-11-06T11:49:18.408Z,97.40
2018-11-06T11:51:46.929Z,97.80
2018-11-06T11:54:15.460Z,97.40
2018-11-06T11:56:44.005Z,97.60
2018-11-06T11:59:12.472Z,98.80
2018-11-06T12:01:40.989Z,98.80
2018-11-06T12:04:09.486Z,97.20
2018-11-06T12:06:37.954Z,97.60
2018-11-06T12:09:08.193Z,96.50
2018-11-06T12:14:05.074Z,95.60
2018-11-06T12:16:33.851Z,96.90
2018-11-06T12:19:02.350Z,96.60
2018-11-06T12:21:31.002Z,97.10
2018-11-06T12:23:59.582Z,98.60
2018-11-06T12:26:27.990Z,99.90
2018-11-06T12:28:56.458Z,99.90
2018-11-06T12:31:24.910Z,99.90
2018-11-06T12:33:53.394Z,99.90
2018-11-06T12:36:21.872Z,99.90
2018-11-06T12:38:50.370Z,99.90
2018-11-06T12:41:18.850Z,99.90
2018-11-06T12:43:47.420Z,99.90
2018-11-06T12:46:16.006Z,99.90
2018-11-06T12:48:44.502Z,99.90
2018-11-06T12:51:12.990Z,99.90
2018-11-06T12:53:41.450Z,99.90
2018-11-06T12:56:10.093Z,99.90
2018-11-06T12:58:38.569Z,99.90
2018-11-06T13:01:07.246Z,99.90
2018-11-06T13:03:35.813Z,99.90
2018-11-06T13:06:04.296Z,99.90
2018-11-06T13:08:32.788Z,99.90
2018-11-06T13:11:01.299Z,99.90
2018-11-06T13:13:29.829Z,99.90
2018-11-06T13:15:58.340Z,99.90
2018-11-06T13:18:27.473Z,99.90
2018-11-06T13:20:56.136Z,99.90
2018-11-06T13:23:24.674Z,99.90
2018-11-06T13:25:53.249Z,99.90
2018-11-06T13:28:21.749Z,99.90
2018-11-06T13:30:50.423Z,99.90
2018-11-06T13:33:18.955Z,99.90
2018-11-06T13:35:47.511Z,99.90
2018-11-06T13:38:16.061Z,99.90
2018-11-06T13:40:44.624Z,99.90
2018-11-06T13:45:41.663Z,99.90
2018-11-06T13:48:10.060Z,99.90
2018-11-06T13:50:38.573Z,99.90
2018-11-06T13:53:07.139Z,99.90
2018-11-06T13:55:35.643Z,99.90
2018-11-06T13:58:04.197Z,99.90
2018-11-06T14:00:32.727Z,99.90
2018-11-06T14:03:01.259Z,99.90
2018-11-06T14:05:29.775Z,99.90
2018-11-06T14:07:58.396Z,99.90
2018-11-06T14:10:26.920Z,99.90
2018-11-06T14:12:55.490Z,99.90
2018-11-06T14:15:24.005Z,99.90
2018-11-06T14:17:52.527Z,99.90
2018-11-06T14:20:21.063Z,99.90
2018-11-06T14:22:49.661Z,99.90
2018-11-06T14:25:18.212Z,99.90
2018-11-06T14:27:46.753Z,99.90
2018-11-06T14:30:17.319Z,99.90
2018-11-06T14:32:46.430Z,99.90
2018-11-06T14:35:16.131Z,99.90
2018-11-06T14:37:45.319Z,99.90
2018-11-06T14:40:14.463Z,99.90
2018-11-06T14:42:43.756Z,99.90
2018-11-06T14:45:13.951Z,99.90
2018-11-06T14:50:11.571Z,99.90
2018-11-06T14:52:40.143Z,99.90
2018-11-06T14:55:10.449Z,99.90
2018-11-06T14:57:39.065Z,99.90
2018-11-06T15:00:17.982Z,99.90
2018-11-06T15:02:47.749Z,99.90
2018-11-06T15:05:16.980Z,99.90
2018-11-06T15:07:45.630Z,99.90
2018-11-06T15:10:14.637Z,99.90
2018-11-06T15:12:43.933Z,99.90
2018-11-06T15:15:13.307Z,99.90
2018-11-06T15:17:43.194Z,99.90
2018-11-06T15:20:14.023Z,99.90
2018-11-06T15:22:43.421Z,99.90
2018-11-06T15:25:12.781Z,99.90
2018-11-06T15:27:41.450Z,99.90
2018-11-06T15:30:11.937Z,99.90
2018-11-06T15:35:11.001Z,99.90
2018-11-06T15:40:09.904Z,99.90
2018-11-06T15:42:38.580Z,99.90
2018-11-06T15:45:08.432Z,99.90
2018-11-06T15:47:36.974Z,99.90
2018-11-06T15:50:08.166Z,99.90
2018-11-06T15:52:36.763Z,99.90
2018-11-06T15:55:05.575Z,99.90
2018-11-06T15:57:35.218Z,99.90
2018-11-06T16:02:32.787Z,99.90
2018-11-06T16:05:01.362Z,99.90
2018-11-06T16:07:29.934Z,99.90
2018-11-06T16:09:58.543Z,99.90
2018-11-06T16:12:27.846Z,99.90
2018-11-06T16:14:56.438Z,99.90
2018-11-06T16:17:25.002Z,99.90
2018-11-06T16:19:53.578Z,99.90
2018-11-06T16:22:22.150Z,99.90
2018-11-06T16:24:50.724Z,99.90
2018-11-06T16:27:19.434Z,99.90
2018-11-06T16:29:48.300Z,99.90
2018-11-06T16:32:16.860Z,99.90
2018-11-06T16:34:45.600Z,99.90
2018-11-06T16:39:42.864Z,99.90
2018-11-06T16:42:11.703Z,99.90
2018-11-06T16:44:40.390Z,99.90
2018-11-06T16:47:09.650Z,99.90
2018-11-06T16:49:38.237Z,99.90
2018-11-06T16:52:06.869Z,99.90
2018-11-06T16:54:35.523Z,99.90
2018-11-06T16:57:04.242Z,99.90
2018-11-06T16:59:32.804Z,99.90
2018-11-06T17:02:01.751Z,99.90
2018-11-06T17:04:30.824Z,99.90
2018-11-06T17:06:59.463Z,99.90
2018-11-06T17:09:28.136Z,99.90
2018-11-06T17:11:56.740Z,99.90
2018-11-06T17:14:25.448Z,99.90
2018-11-06T17:16:54.029Z,99.90
2018-11-06T17:19:23.033Z,99.90
2018-11-06T17:21:51.839Z,99.90
2018-11-06T17:24:21.325Z,99.90
2018-11-06T17:26:49.989Z,99.90
2018-11-06T17:29:18.578Z,99.90
2018-11-06T17:31:47.271Z,99.90
2018-11-06T17:34:16.679Z,99.90
2018-11-06T17:36:46.108Z,99.90
2018-11-06T17:39:15.829Z,99.90
2018-11-06T17:44:12.905Z,99.90
2018-11-06T17:49:10.541Z,99.90
2018-11-06T17:51:39.578Z,99.90
2018-11-06T17:54:08.535Z,99.90
2018-11-06T17:56:37.776Z,99.90
2018-11-06T17:59:06.532Z,99.90
2018-11-06T18:01:35.382Z,99.90
2018-11-06T18:04:04.271Z,99.90
2018-11-06T18:06:34.832Z,99.90
2018-11-06T18:09:04.963Z,99.90
2018-11-06T18:16:33.657Z,99.90
2018-11-06T18:19:03.653Z,99.90
2018-11-06T18:21:33.666Z,99.90
2018-11-06T18:24:02.865Z,99.90
2018-11-06T18:26:32.018Z,99.90
2018-11-06T18:29:01.132Z,99.90
2018-11-06T18:31:31.538Z,99.90
2018-11-06T18:34:00.501Z,99.90
2018-11-06T18:36:31.354Z,99.90
2018-11-06T18:41:29.311Z,99.90
2018-11-06T18:43:59.929Z,99.90
2018-11-06T18:46:28.664Z,99.90
2018-11-06T18:48:58.327Z,99.90
2018-11-06T18:51:27.084Z,99.90
2018-11-06T18:56:24.788Z,99.90
2018-11-06T18:58:53.464Z,99.90
2018-11-06T19:01:22.565Z,99.90
2018-11-06T19:06:22.724Z,99.90
2018-11-06T19:08:52.780Z,99.90
2018-11-06T19:11:23.057Z,99.90
2018-11-06T19:13:52.727Z,99.90
2018-11-06T19:16:21.780Z,99.90
2018-11-06T19:18:51.911Z,99.90
2018-11-06T19:21:20.829Z,99.90
2018-11-06T19:23:49.524Z,99.90
2018-11-06T19:26:23.943Z,99.90
2018-11-06T19:28:54.514Z,99.90
2018-11-06T19:31:24.435Z,99.90
2018-11-06T19:33:53.269Z,99.90
2018-11-06T19:36:23.314Z,99.90
2018-11-06T19:38:52.554Z,99.90
2018-11-06T19:41:21.975Z,99.90
2018-11-06T19:43:51.881Z,99.90
2018-11-06T19:46:20.814Z,99.90
2018-11-06T19:48:50.078Z,99.90
2018-11-06T19:51:20.601Z,99.90
2018-11-06T19:53:51.430Z,99.90
2018-11-06T19:56:22.068Z,99.90
2018-11-06T19:58:52.279Z,99.90
2018-11-06T20:01:22.223Z,99.90
2018-11-06T20:03:51.249Z,99.90
2018-11-06T20:06:26.059Z,99.90
2018-11-06T20:08:55.999Z,99.90
2018-11-06T20:11:25.869Z,99.90
2018-11-06T20:13:56.725Z,99.90
2018-11-06T20:16:25.369Z,99.90
2018-11-06T20:18:54.211Z,99.90
2018-11-06T20:21:24.934Z,99.90
2018-11-06T20:23:55.917Z,99.90
2018-11-06T20:26:27.113Z,99.90
2018-11-06T20:28:56.632Z,99.90
2018-11-06T20:31:26.259Z,99.90
2018-11-06T20:33:56.580Z,99.90
2018-11-06T20:36:25.512Z,99.90
2018-11-06T20:38:54.238Z,99.90
2018-11-06T20:41:24.150Z,99.90
2018-11-06T20:43:54.918Z,99.90
2018-11-06T20:48:53.172Z,99.90
2018-11-06T20:51:21.925Z,99.90
2018-11-06T20:53:50.974Z,99.90
2018-11-06T20:56:20.748Z,99.90
2018-11-06T20:58:49.364Z,99.90
2018-11-06T21:01:18.274Z,99.90
2018-11-06T21:03:48.797Z,99.90
2018-11-06T21:06:18.467Z,99.90
2018-11-06T21:08:49.723Z,99.90
2018-11-06T21:11:18.837Z,99.90
2018-11-06T21:13:48.340Z,99.90
2018-11-06T21:16:17.402Z,99.90
2018-11-06T21:18:47.433Z,99.90
2018-11-06T21:21:16.765Z,99.90
2018-11-06T21:23:45.428Z,99.90
2018-11-06T21:26:15.927Z,99.90
2018-11-06T21:28:44.668Z,99.90
2018-11-06T21:31:15.198Z,99.90
2018-11-06T21:33:45.149Z,99.90
2018-11-06T21:36:13.767Z,99.90
2018-11-06T21:38:42.583Z,99.90
2018-11-06T21:41:13.674Z,99.90
2018-11-06T21:43:42.817Z,99.90
2018-11-06T21:46:11.921Z,99.90
2018-11-06T21:48:41.315Z,99.90
2018-11-06T21:51:09.963Z,99.90
2018-11-06T21:53:38.681Z,99.90
2018-11-06T21:56:07.299Z,99.90
2018-11-06T21:58:38.947Z,99.90
2018-11-06T22:01:09.079Z,99.90
2018-11-06T22:03:37.730Z,99.90
2018-11-06T22:06:07.326Z,99.90
2018-11-06T22:08:37.091Z,99.90
2018-11-06T22:11:06.524Z,99.90
2018-11-06T22:13:35.175Z,99.90
2018-11-06T22:16:04.042Z,99.90
2018-11-06T22:18:33.298Z,99.90
2018-11-06T22:21:02.291Z,99.90
2018-11-06T22:23:30.917Z,99.90
2018-11-06T22:25:59.743Z,99.90
2018-11-06T22:28:28.346Z,99.90
2018-11-06T22:30:56.967Z,99.90
2018-11-06T22:33:25.591Z,99.90
2018-11-06T22:35:54.191Z,99.90
2018-11-06T22:38:22.744Z,99.90
2018-11-06T22:40:51.377Z,99.90
2018-11-06T22:43:19.926Z,99.90
2018-11-06T22:45:48.556Z,99.90
2018-11-06T22:48:17.146Z,99.90
2018-11-06T22:53:13.981Z,99.90
2018-11-06T22:58:10.754Z,99.90
2018-11-06T23:00:44.663Z,99.90
2018-11-06T23:03:15.102Z,99.90
2018-11-06T23:05:43.693Z,99.90
2018-11-06T23:08:17.687Z,99.90
2018-11-06T23:10:46.255Z,99.90
2018-11-06T23:13:14.797Z,99.90
2018-11-06T23:15:43.334Z,99.90
2018-11-06T23:18:11.866Z,99.90
2018-11-06T23:20:40.496Z,99.90
2018-11-06T23:23:09.027Z,99.90
2018-11-06T23:25:37.577Z,99.90
2018-11-06T23:28:06.256Z,99.90
2018-11-06T23:30:34.794Z,99.90
2018-11-06T23:33:03.336Z,99.90
2018-11-06T23:35:31.913Z,99.90
2018-11-06T23:38:00.516Z,99.90
2018-11-06T23:40:29.059Z,99.90
2018-11-06T23:42:57.576Z,99.90
2018-11-06T23:45:26.066Z,99.90
2018-11-06T23:47:54.611Z,99.90
2018-11-06T23:50:23.136Z,99.90
2018-11-06T23:52:51.642Z,99.90
2018-11-06T23:55:20.173Z,99.90
2018-11-06T23:57:48.767Z,99.90
